Aviation Digital Data Service (ADDS)

Output produced by METARs form (0418 UTC 19 February 2019)
found at http://www.aviationweather.gov/metar/data/
 
METAR text: EIDW 190400Z 23007KT 190V260 9999 FEW010 SCT040 05/02 Q1013 NOSIG
Conditions at: EIDW (DUBLIN AIRPORT , IE) observed 0400 UTC 19 February 2019
Temperature: 5.0°C (41°F)
Dewpoint: 2.0°C (36°F) [RH = 81%]
Pressure (altimeter): 29.91 inches Hg (1013.0 mb)
Winds: from the SW (230 degrees) at 8 MPH (7 knots; 3.6 m/s)
Visibility: 6 or more miles (10+ km)
Ceiling: at least 12,000 feet AGL
Clouds: few clouds at 1000 feet AGL
scattered clouds at 4000 feet AGL
Weather: no significant weather observed at this time

METAR text: EIDW 190330Z 23007KT 200V260 9999 FEW010 SCT040 04/03 Q1013 NOSIG
Conditions at: EIDW (DUBLIN AIRPORT , IE) observed 0330 UTC 19 February 2019
Temperature: 4.0°C (39°F)
Dewpoint: 3.0°C (37°F) [RH = 93%]
Pressure (altimeter): 29.91 inches Hg (1013.0 mb)
Winds: from the SW (230 degrees) at 8 MPH (7 knots; 3.6 m/s)
Visibility: 6 or more miles (10+ km)
Ceiling: at least 12,000 feet AGL
Clouds: few clouds at 1000 feet AGL
scattered clouds at 4000 feet AGL
Weather: no significant weather observed at this time

METAR text: EIDW 190300Z 24008KT 190V270 9999 FEW010 SCT040 05/03 Q1013 NOSIG
Conditions at: EIDW (DUBLIN AIRPORT , IE) observed 0300 UTC 19 February 2019
Temperature: 5.0°C (41°F)
Dewpoint: 3.0°C (37°F) [RH = 87%]
Pressure (altimeter): 29.91 inches Hg (1013.0 mb)
Winds: from the WSW (240 degrees) at 9 MPH (8 knots; 4.1 m/s)
Visibility: 6 or more miles (10+ km)
Ceiling: at least 12,000 feet AGL
Clouds: few clouds at 1000 feet AGL
scattered clouds at 4000 feet AGL
Weather: no significant weather observed at this time

METAR text: EIDW 190230Z 24009KT 210V270 9999 FEW010 SCT030 05/03 Q1013 NOSIG
Conditions at: EIDW (DUBLIN AIRPORT , IE) observed 0230 UTC 19 February 2019
Temperature: 5.0°C (41°F)
Dewpoint: 3.0°C (37°F) [RH = 87%]
Pressure (altimeter): 29.91 inches Hg (1013.0 mb)
Winds: from the WSW (240 degrees) at 10 MPH (9 knots; 4.6 m/s)
Visibility: 6 or more miles (10+ km)
Ceiling: at least 12,000 feet AGL
Clouds: few clouds at 1000 feet AGL
scattered clouds at 3000 feet AGL
Weather: no significant weather observed at this time

METAR text: EIDW 190200Z 23009KT 190V280 9999 FEW010 SCT030 05/03 Q1013 NOSIG
Conditions at: EIDW (DUBLIN AIRPORT , IE) observed 0200 UTC 19 February 2019
Temperature: 5.0°C (41°F)
Dewpoint: 3.0°C (37°F) [RH = 87%]
Pressure (altimeter): 29.91 inches Hg (1013.0 mb)
Winds: from the SW (230 degrees) at 10 MPH (9 knots; 4.6 m/s)
Visibility: 6 or more miles (10+ km)
Ceiling: at least 12,000 feet AGL
Clouds: few clouds at 1000 feet AGL
scattered clouds at 3000 feet AGL
Weather: no significant weather observed at this time

METAR text: EIDW 190130Z 23008KT 190V280 9999 FEW010 SCT030 05/03 Q1013 NOSIG
Conditions at: EIDW (DUBLIN AIRPORT , IE) observed 0130 UTC 19 February 2019
Temperature: 5.0°C (41°F)
Dewpoint: 3.0°C (37°F) [RH = 87%]
Pressure (altimeter): 29.91 inches Hg (1013.0 mb)
Winds: from the SW (230 degrees) at 9 MPH (8 knots; 4.1 m/s)
Visibility: 6 or more miles (10+ km)
Ceiling: at least 12,000 feet AGL
Clouds: few clouds at 1000 feet AGL
scattered clouds at 3000 feet AGL
Weather: no significant weather observed at this time

METAR text: EIDW 190100Z 24008KT 190V290 9999 FEW010 SCT030 05/04 Q1013 NOSIG
Conditions at: EIDW (DUBLIN AIRPORT , IE) observed 0100 UTC 19 February 2019
Temperature: 5.0°C (41°F)
Dewpoint: 4.0°C (39°F) [RH = 93%]
Pressure (altimeter): 29.91 inches Hg (1013.0 mb)
Winds: from the WSW (240 degrees) at 9 MPH (8 knots; 4.1 m/s)
Visibility: 6 or more miles (10+ km)
Ceiling: at least 12,000 feet AGL
Clouds: few clouds at 1000 feet AGL
scattered clouds at 3000 feet AGL
Weather: no significant weather observed at this time

METAR text: EIDW 190030Z 25012KT 220V280 9999 FEW010 SCT030 06/04 Q1012 NOSIG
Conditions at: EIDW (DUBLIN AIRPORT , IE) observed 0030 UTC 19 February 2019
Temperature: 6.0°C (43°F)
Dewpoint: 4.0°C (39°F) [RH = 87%]
Pressure (altimeter): 29.88 inches Hg (1012.0 mb)
Winds: from the WSW (250 degrees) at 14 MPH (12 knots; 6.2 m/s)
Visibility: 6 or more miles (10+ km)
Ceiling: at least 12,000 feet AGL
Clouds: few clouds at 1000 feet AGL
scattered clouds at 3000 feet AGL
Weather: no significant weather observed at this time

METAR text: EIDW 190000Z 25011KT 220V280 9999 SCT010 BKN030 06/04 Q1012 NOSIG
Conditions at: EIDW (DUBLIN AIRPORT , IE) observed 0000 UTC 19 February 2019
Temperature: 6.0°C (43°F)
Dewpoint: 4.0°C (39°F) [RH = 87%]
Pressure (altimeter): 29.88 inches Hg (1012.0 mb)
Winds: from the WSW (250 degrees) at 13 MPH (11 knots; 5.7 m/s)
Visibility: 6 or more miles (10+ km)
Ceiling: 3000 feet AGL
Clouds: scattered clouds at 1000 feet AGL
broken clouds at 3000 feet AGL
Weather: no significant weather observed at this time

METAR text: EIDW 182330Z 25010KT 210V270 9999 SCT010 BKN030 07/05 Q1012 NOSIG
Conditions at: EIDW (DUBLIN AIRPORT , IE) observed 2330 UTC 18 February 2019
Temperature: 7.0°C (45°F)
Dewpoint: 5.0°C (41°F) [RH = 87%]
Pressure (altimeter): 29.88 inches Hg (1012.0 mb)
Winds: from the WSW (250 degrees) at 12 MPH (10 knots; 5.1 m/s)
Visibility: 6 or more miles (10+ km)
Ceiling: 3000 feet AGL
Clouds: scattered clouds at 1000 feet AGL
broken clouds at 3000 feet AGL
Weather: no significant weather observed at this time

METAR text: EIDW 182300Z 24010KT 210V280 9999 -SHRA SCT010 BKN030 07/05 Q1012 NOSIG
Conditions at: EIDW (DUBLIN AIRPORT , IE) observed 2300 UTC 18 February 2019
Temperature: 7.0°C (45°F)
Dewpoint: 5.0°C (41°F) [RH = 87%]
Pressure (altimeter): 29.88 inches Hg (1012.0 mb)
Winds: from the WSW (240 degrees) at 12 MPH (10 knots; 5.1 m/s)
Visibility: 6 or more miles (10+ km)
Ceiling: 3000 feet AGL
Clouds: scattered clouds at 1000 feet AGL
broken clouds at 3000 feet AGL
Weather: -SHRA  (light rain showers)

METAR text: EIDW 182230Z 25010KT 200V270 9999 SCT010 BKN030 07/05 Q1012 NOSIG
Conditions at: EIDW (DUBLIN AIRPORT , IE) observed 2230 UTC 18 February 2019
Temperature: 7.0°C (45°F)
Dewpoint: 5.0°C (41°F) [RH = 87%]
Pressure (altimeter): 29.88 inches Hg (1012.0 mb)
Winds: from the WSW (250 degrees) at 12 MPH (10 knots; 5.1 m/s)
Visibility: 6 or more miles (10+ km)
Ceiling: 3000 feet AGL
Clouds: scattered clouds at 1000 feet AGL
broken clouds at 3000 feet AGL
Weather: no significant weather observed at this time

METAR text: EIDW 182200Z 25011KT 210V280 9999 SCT010 BKN030 07/05 Q1012 NOSIG
Conditions at: EIDW (DUBLIN AIRPORT , IE) observed 2200 UTC 18 February 2019
Temperature: 7.0°C (45°F)
Dewpoint: 5.0°C (41°F) [RH = 87%]
Pressure (altimeter): 29.88 inches Hg (1012.0 mb)
Winds: from the WSW (250 degrees) at 13 MPH (11 knots; 5.7 m/s)
Visibility: 6 or more miles (10+ km)
Ceiling: 3000 feet AGL
Clouds: scattered clouds at 1000 feet AGL
broken clouds at 3000 feet AGL
Weather: no significant weather observed at this time

METAR text: EIDW 182130Z 25011KT 220V280 9999 SCT010 BKN033 07/05 Q1011 NOSIG
Conditions at: EIDW (DUBLIN AIRPORT , IE) observed 2130 UTC 18 February 2019
Temperature: 7.0°C (45°F)
Dewpoint: 5.0°C (41°F) [RH = 87%]
Pressure (altimeter): 29.85 inches Hg (1011.0 mb)
Winds: from the WSW (250 degrees) at 13 MPH (11 knots; 5.7 m/s)
Visibility: 6 or more miles (10+ km)
Ceiling: 3300 feet AGL
Clouds: scattered clouds at 1000 feet AGL
broken clouds at 3300 feet AGL
Weather: no significant weather observed at this time

METAR text: EIDW 182100Z 25012KT 200V280 9999 FEW013 BKN033 07/05 Q1011 NOSIG
Conditions at: EIDW (DUBLIN AIRPORT , IE) observed 2100 UTC 18 February 2019
Temperature: 7.0°C (45°F)
Dewpoint: 5.0°C (41°F) [RH = 87%]
Pressure (altimeter): 29.85 inches Hg (1011.0 mb)
Winds: from the WSW (250 degrees) at 14 MPH (12 knots; 6.2 m/s)
Visibility: 6 or more miles (10+ km)
Ceiling: 3300 feet AGL
Clouds: few clouds at 1300 feet AGL
broken clouds at 3300 feet AGL
Weather: no significant weather observed at this time

METAR text: EIDW 182030Z 24011KT 210V270 9999 -SHRA FEW017 BKN035 BKN042 07/05 Q1011 NOSIG
Conditions at: EIDW (DUBLIN AIRPORT , IE) observed 2030 UTC 18 February 2019
Temperature: 7.0°C (45°F)
Dewpoint: 5.0°C (41°F) [RH = 87%]
Pressure (altimeter): 29.85 inches Hg (1011.0 mb)
Winds: from the WSW (240 degrees) at 13 MPH (11 knots; 5.7 m/s)
Visibility: 6 or more miles (10+ km)
Ceiling: 3500 feet AGL
Clouds: few clouds at 1700 feet AGL
broken clouds at 3500 feet AGL
broken clouds at 4200 feet AGL
Weather: -SHRA  (light rain showers)

METAR text: EIDW 182000Z 25009KT 210V280 9999 FEW014 SCT029 BKN038 07/05 Q1010 NOSIG
Conditions at: EIDW (DUBLIN AIRPORT , IE) observed 2000 UTC 18 February 2019
Temperature: 7.0°C (45°F)
Dewpoint: 5.0°C (41°F) [RH = 87%]
Pressure (altimeter): 29.82 inches Hg (1010.0 mb)
Winds: from the WSW (250 degrees) at 10 MPH (9 knots; 4.6 m/s)
Visibility: 6 or more miles (10+ km)
Ceiling: 3800 feet AGL
Clouds: few clouds at 1400 feet AGL
scattered clouds at 2900 feet AGL
broken clouds at 3800 feet AGL
Weather: no significant weather observed at this time

METAR text: EIDW 181930Z 24010KT 190V270 9999 FEW014 07/05 Q1010 NOSIG
Conditions at: EIDW (DUBLIN AIRPORT , IE) observed 1930 UTC 18 February 2019
Temperature: 7.0°C (45°F)
Dewpoint: 5.0°C (41°F) [RH = 87%]
Pressure (altimeter): 29.82 inches Hg (1010.0 mb)
Winds: from the WSW (240 degrees) at 12 MPH (10 knots; 5.1 m/s)
Visibility: 6 or more miles (10+ km)
Ceiling: at least 12,000 feet AGL
Clouds: few clouds at 1400 feet AGL
Weather: no significant weather observed at this time

METAR text: EIDW 181900Z 24011KT 210V270 9999 SCT015 07/05 Q1010 NOSIG
Conditions at: EIDW (DUBLIN AIRPORT , IE) observed 1900 UTC 18 February 2019
Temperature: 7.0°C (45°F)
Dewpoint: 5.0°C (41°F) [RH = 87%]
Pressure (altimeter): 29.82 inches Hg (1010.0 mb)
Winds: from the WSW (240 degrees) at 13 MPH (11 knots; 5.7 m/s)
Visibility: 6 or more miles (10+ km)
Ceiling: at least 12,000 feet AGL
Clouds: scattered clouds at 1500 feet AGL
Weather: no significant weather observed at this time

METAR text: EIDW 181830Z 24010KT 190V280 9999 FEW017 08/05 Q1010 NOSIG
Conditions at: EIDW (DUBLIN AIRPORT , IE) observed 1830 UTC 18 February 2019
Temperature: 8.0°C (46°F)
Dewpoint: 5.0°C (41°F) [RH = 81%]
Pressure (altimeter): 29.82 inches Hg (1010.0 mb)
Winds: from the WSW (240 degrees) at 12 MPH (10 knots; 5.1 m/s)
Visibility: 6 or more miles (10+ km)
Ceiling: at least 12,000 feet AGL
Clouds: few clouds at 1700 feet AGL
Weather: no significant weather observed at this time

METAR text: EIDW 181800Z 24009KT 190V290 9999 FEW017 SCT024 08/05 Q1009 NOSIG
Conditions at: EIDW (DUBLIN AIRPORT , IE) observed 1800 UTC 18 February 2019
Temperature: 8.0°C (46°F)
Dewpoint: 5.0°C (41°F) [RH = 81%]
Pressure (altimeter): 29.79 inches Hg (1009.0 mb)
Winds: from the WSW (240 degrees) at 10 MPH (9 knots; 4.6 m/s)
Visibility: 6 or more miles (10+ km)
Ceiling: at least 12,000 feet AGL
Clouds: few clouds at 1700 feet AGL
scattered clouds at 2400 feet AGL
Weather: no significant weather observed at this time

METAR text: EIDW 181730Z 24009KT 200V280 9999 VCSH FEW018 SCT027 BKN044 08/05 Q1009 NOSIG
Conditions at: EIDW (DUBLIN AIRPORT , IE) observed 1730 UTC 18 February 2019
Temperature: 8.0°C (46°F)
Dewpoint: 5.0°C (41°F) [RH = 81%]
Pressure (altimeter): 29.79 inches Hg (1009.0 mb)
Winds: from the WSW (240 degrees) at 10 MPH (9 knots; 4.6 m/s)
Visibility: 6 or more miles (10+ km)
Ceiling: 4400 feet AGL
Clouds: few clouds at 1800 feet AGL
scattered clouds at 2700 feet AGL
broken clouds at 4400 feet AGL
Weather: VCSH  (showers in vicinity)

METAR text: EIDW 181700Z 24012KT 200V270 9999 VCSH FEW017CB SCT044 08/05 Q1008 NOSIG
Conditions at: EIDW (DUBLIN AIRPORT , IE) observed 1700 UTC 18 February 2019
Temperature: 8.0°C (46°F)
Dewpoint: 5.0°C (41°F) [RH = 81%]
Pressure (altimeter): 29.76 inches Hg (1008.0 mb)
Winds: from the WSW (240 degrees) at 14 MPH (12 knots; 6.2 m/s)
Visibility: 6 or more miles (10+ km)
Ceiling: at least 12,000 feet AGL
Clouds: few clouds at 1700 feet AGL
scattered clouds at 4400 feet AGL
Weather: VCSH  (showers in vicinity)

METAR text: EIDW 181630Z 24012KT 200V280 9999 -SHRA SCT017CB SCT028 09/04 Q1008 NOSIG
Conditions at: EIDW (DUBLIN AIRPORT , IE) observed 1630 UTC 18 February 2019
Temperature: 9.0°C (48°F)
Dewpoint: 4.0°C (39°F) [RH = 71%]
Pressure (altimeter): 29.76 inches Hg (1008.0 mb)
Winds: from the WSW (240 degrees) at 14 MPH (12 knots; 6.2 m/s)
Visibility: 6 or more miles (10+ km)
Ceiling: at least 12,000 feet AGL
Clouds: scattered clouds at 1700 feet AGL
scattered clouds at 2800 feet AGL
Weather: -SHRA  (light rain showers)

METAR text: EIDW 181600Z 24011KT 200V280 9999 VCSH FEW012 FEW018CB SCT024 10/04 Q1008 NOSIG
Conditions at: EIDW (DUBLIN AIRPORT , IE) observed 1600 UTC 18 February 2019
Temperature: 10.0°C (50°F)
Dewpoint: 4.0°C (39°F) [RH = 66%]
Pressure (altimeter): 29.76 inches Hg (1008.0 mb)
Winds: from the WSW (240 degrees) at 13 MPH (11 knots; 5.7 m/s)
Visibility: 6 or more miles (10+ km)
Ceiling: at least 12,000 feet AGL
Clouds: few clouds at 1200 feet AGL
few clouds at 1800 feet AGL
scattered clouds at 2400 feet AGL
Weather: VCSH  (showers in vicinity)

METAR text: EIDW 181530Z 24009KT 190V290 9999 -SHRA FEW018 SCT024 BKN035 09/04 Q1007 NOSIG
Conditions at: EIDW (DUBLIN AIRPORT , IE) observed 1530 UTC 18 February 2019
Temperature: 9.0°C (48°F)
Dewpoint: 4.0°C (39°F) [RH = 71%]
Pressure (altimeter): 29.73 inches Hg (1007.0 mb)
Winds: from the WSW (240 degrees) at 10 MPH (9 knots; 4.6 m/s)
Visibility: 6 or more miles (10+ km)
Ceiling: 3500 feet AGL
Clouds: few clouds at 1800 feet AGL
scattered clouds at 2400 feet AGL
broken clouds at 3500 feet AGL
Weather: -SHRA  (light rain showers)

METAR text: EIDW 181500Z 23013G23KT 200V260 9999 -SHRA FEW019 SCT024 BKN034 09/04 Q1007 NOSIG
Conditions at: EIDW (DUBLIN AIRPORT , IE) observed 1500 UTC 18 February 2019
Temperature: 9.0°C (48°F)
Dewpoint: 4.0°C (39°F) [RH = 71%]
Pressure (altimeter): 29.73 inches Hg (1007.0 mb)
Winds: from the SW (230 degrees) at 15 MPH (13 knots; 6.7 m/s)
gusting to 26 MPH (23 knots; 11.8 m/s)
Visibility: 6 or more miles (10+ km)
Ceiling: 3400 feet AGL
Clouds: few clouds at 1900 feet AGL
scattered clouds at 2400 feet AGL
broken clouds at 3400 feet AGL
Weather: -SHRA  (light rain showers)

METAR text: EIDW 181430Z 23011G22KT 180V270 9999 FEW019 SCT024 BKN032 09/04 Q1007 NOSIG
Conditions at: EIDW (DUBLIN AIRPORT , IE) observed 1430 UTC 18 February 2019
Temperature: 9.0°C (48°F)
Dewpoint: 4.0°C (39°F) [RH = 71%]
Pressure (altimeter): 29.73 inches Hg (1007.0 mb)
Winds: from the SW (230 degrees) at 13 MPH (11 knots; 5.7 m/s)
gusting to 25 MPH (22 knots; 11.3 m/s)
Visibility: 6 or more miles (10+ km)
Ceiling: 3200 feet AGL
Clouds: few clouds at 1900 feet AGL
scattered clouds at 2400 feet AGL
broken clouds at 3200 feet AGL
Weather: no significant weather observed at this time

METAR text: EIDW 181400Z 24015G25KT 200V280 9999 FEW019 BKN024 09/04 Q1007 NOSIG
Conditions at: EIDW (DUBLIN AIRPORT , IE) observed 1400 UTC 18 February 2019
Temperature: 9.0°C (48°F)
Dewpoint: 4.0°C (39°F) [RH = 71%]
Pressure (altimeter): 29.73 inches Hg (1007.0 mb)
Winds: from the WSW (240 degrees) at 17 MPH (15 knots; 7.7 m/s)
gusting to 29 MPH (25 knots; 12.9 m/s)
Visibility: 6 or more miles (10+ km)
Ceiling: 2400 feet AGL
Clouds: few clouds at 1900 feet AGL
broken clouds at 2400 feet AGL
Weather: no significant weather observed at this time

METAR text: EIDW 181330Z 24015G26KT 200V280 9999 FEW018CB SCT022 BKN028 09/04 Q1007 NOSIG
Conditions at: EIDW (DUBLIN AIRPORT , IE) observed 1330 UTC 18 February 2019
Temperature: 9.0°C (48°F)
Dewpoint: 4.0°C (39°F) [RH = 71%]
Pressure (altimeter): 29.73 inches Hg (1007.0 mb)
Winds: from the WSW (240 degrees) at 17 MPH (15 knots; 7.7 m/s)
gusting to 30 MPH (26 knots; 13.4 m/s)
Visibility: 6 or more miles (10+ km)
Ceiling: 2800 feet AGL
Clouds: few clouds at 1800 feet AGL
scattered clouds at 2200 feet AGL
broken clouds at 2800 feet AGL
Weather: no significant weather observed at this time

METAR text: EIDW 181300Z 24012KT 200V270 9999 FEW018CB SCT021 09/04 Q1007 NOSIG
Conditions at: EIDW (DUBLIN AIRPORT , IE) observed 1300 UTC 18 February 2019
Temperature: 9.0°C (48°F)
Dewpoint: 4.0°C (39°F) [RH = 71%]
Pressure (altimeter): 29.73 inches Hg (1007.0 mb)
Winds: from the WSW (240 degrees) at 14 MPH (12 knots; 6.2 m/s)
Visibility: 6 or more miles (10+ km)
Ceiling: at least 12,000 feet AGL
Clouds: few clouds at 1800 feet AGL
scattered clouds at 2100 feet AGL
Weather: no significant weather observed at this time

METAR text: EIDW 181230Z 23014G24KT 200V260 9999 FEW018 BKN020 08/04 Q1007 NOSIG
Conditions at: EIDW (DUBLIN AIRPORT , IE) observed 1230 UTC 18 February 2019
Temperature: 8.0°C (46°F)
Dewpoint: 4.0°C (39°F) [RH = 76%]
Pressure (altimeter): 29.73 inches Hg (1007.0 mb)
Winds: from the SW (230 degrees) at 16 MPH (14 knots; 7.2 m/s)
gusting to 28 MPH (24 knots; 12.3 m/s)
Visibility: 6 or more miles (10+ km)
Ceiling: 2000 feet AGL
Clouds: few clouds at 1800 feet AGL
broken clouds at 2000 feet AGL
Weather: no significant weather observed at this time

METAR text: EIDW 181200Z 23013G26KT 200V270 9999 FEW018CB SCT020 08/04 Q1007 NOSIG
Conditions at: EIDW (DUBLIN AIRPORT , IE) observed 1200 UTC 18 February 2019
Temperature: 8.0°C (46°F)
Dewpoint: 4.0°C (39°F) [RH = 76%]
Pressure (altimeter): 29.73 inches Hg (1007.0 mb)
Winds: from the SW (230 degrees) at 15 MPH (13 knots; 6.7 m/s)
gusting to 30 MPH (26 knots; 13.4 m/s)
Visibility: 6 or more miles (10+ km)
Ceiling: at least 12,000 feet AGL
Clouds: few clouds at 1800 feet AGL
scattered clouds at 2000 feet AGL
Weather: no significant weather observed at this time

METAR text: EIDW 181130Z 23014G24KT 190V260 9999 FEW018 BKN020 08/03 Q1007 NOSIG
Conditions at: EIDW (DUBLIN AIRPORT , IE) observed 1130 UTC 18 February 2019
Temperature: 8.0°C (46°F)
Dewpoint: 3.0°C (37°F) [RH = 71%]
Pressure (altimeter): 29.73 inches Hg (1007.0 mb)
Winds: from the SW (230 degrees) at 16 MPH (14 knots; 7.2 m/s)
gusting to 28 MPH (24 knots; 12.3 m/s)
Visibility: 6 or more miles (10+ km)
Ceiling: 2000 feet AGL
Clouds: few clouds at 1800 feet AGL
broken clouds at 2000 feet AGL
Weather: no significant weather observed at this time

METAR text: EIDW 181100Z 23012KT 190V280 9999 FEW017 BKN020 07/03 Q1007 NOSIG
Conditions at: EIDW (DUBLIN AIRPORT , IE) observed 1100 UTC 18 February 2019
Temperature: 7.0°C (45°F)
Dewpoint: 3.0°C (37°F) [RH = 76%]
Pressure (altimeter): 29.73 inches Hg (1007.0 mb)
Winds: from the SW (230 degrees) at 14 MPH (12 knots; 6.2 m/s)
Visibility: 6 or more miles (10+ km)
Ceiling: 2000 feet AGL
Clouds: few clouds at 1700 feet AGL
broken clouds at 2000 feet AGL
Weather: no significant weather observed at this time

METAR text: EIDW 181030Z 22013KT 190V270 9999 FEW017 BKN020 07/03 Q1007 NOSIG
Conditions at: EIDW (DUBLIN AIRPORT , IE) observed 1030 UTC 18 February 2019
Temperature: 7.0°C (45°F)
Dewpoint: 3.0°C (37°F) [RH = 76%]
Pressure (altimeter): 29.73 inches Hg (1007.0 mb)
Winds: from the SW (220 degrees) at 15 MPH (13 knots; 6.7 m/s)
Visibility: 6 or more miles (10+ km)
Ceiling: 2000 feet AGL
Clouds: few clouds at 1700 feet AGL
broken clouds at 2000 feet AGL
Weather: no significant weather observed at this time

METAR text: EIDW 181000Z 22013G24KT 190V250 9999 -SHRA FEW018 BKN020 07/03 Q1006 NOSIG
Conditions at: EIDW (DUBLIN AIRPORT , IE) observed 1000 UTC 18 February 2019
Temperature: 7.0°C (45°F)
Dewpoint: 3.0°C (37°F) [RH = 76%]
Pressure (altimeter): 29.70 inches Hg (1006.0 mb)
Winds: from the SW (220 degrees) at 15 MPH (13 knots; 6.7 m/s)
gusting to 28 MPH (24 knots; 12.3 m/s)
Visibility: 6 or more miles (10+ km)
Ceiling: 2000 feet AGL
Clouds: few clouds at 1800 feet AGL
broken clouds at 2000 feet AGL
Weather: -SHRA  (light rain showers)

METAR text: EIDW 180930Z 22012KT 170V260 9999 SCT019 BKN023 06/02 Q1007 NOSIG
Conditions at: EIDW (DUBLIN AIRPORT , IE) observed 0930 UTC 18 February 2019
Temperature: 6.0°C (43°F)
Dewpoint: 2.0°C (36°F) [RH = 75%]
Pressure (altimeter): 29.73 inches Hg (1007.0 mb)
Winds: from the SW (220 degrees) at 14 MPH (12 knots; 6.2 m/s)
Visibility: 6 or more miles (10+ km)
Ceiling: 2300 feet AGL
Clouds: scattered clouds at 1900 feet AGL
broken clouds at 2300 feet AGL
Weather: no significant weather observed at this time

METAR text: EIDW 180900Z 21014KT 170V260 9999 FEW020 BKN024 06/02 Q1007 NOSIG
Conditions at: EIDW (DUBLIN AIRPORT , IE) observed 0900 UTC 18 February 2019
Temperature: 6.0°C (43°F)
Dewpoint: 2.0°C (36°F) [RH = 75%]
Pressure (altimeter): 29.73 inches Hg (1007.0 mb)
Winds: from the SSW (210 degrees) at 16 MPH (14 knots; 7.2 m/s)
Visibility: 6 or more miles (10+ km)
Ceiling: 2400 feet AGL
Clouds: few clouds at 2000 feet AGL
broken clouds at 2400 feet AGL
Weather: no significant weather observed at this time

METAR text: EIDW 180830Z 20011KT 170V230 9999 FEW020 06/01 Q1006 NOSIG
Conditions at: EIDW (DUBLIN AIRPORT , IE) observed 0830 UTC 18 February 2019
Temperature: 6.0°C (43°F)
Dewpoint: 1.0°C (34°F) [RH = 70%]
Pressure (altimeter): 29.70 inches Hg (1006.0 mb)
Winds: from the SSW (200 degrees) at 13 MPH (11 knots; 5.7 m/s)
Visibility: 6 or more miles (10+ km)
Ceiling: at least 12,000 feet AGL
Clouds: few clouds at 2000 feet AGL
Weather: no significant weather observed at this time

METAR text: EIDW 180800Z 20011KT 9999 FEW020 SCT040 06/01 Q1006 NOSIG
Conditions at: EIDW (DUBLIN AIRPORT , IE) observed 0800 UTC 18 February 2019
Temperature: 6.0°C (43°F)
Dewpoint: 1.0°C (34°F) [RH = 70%]
Pressure (altimeter): 29.70 inches Hg (1006.0 mb)
Winds: from the SSW (200 degrees) at 13 MPH (11 knots; 5.7 m/s)
Visibility: 6 or more miles (10+ km)
Ceiling: at least 12,000 feet AGL
Clouds: few clouds at 2000 feet AGL
scattered clouds at 4000 feet AGL
Weather: no significant weather observed at this time

METAR text: EIDW 180730Z 21013G23KT 180V240 9999 FEW020 SCT040 06/01 Q1006 NOSIG
Conditions at: EIDW (DUBLIN AIRPORT , IE) observed 0730 UTC 18 February 2019
Temperature: 6.0°C (43°F)
Dewpoint: 1.0°C (34°F) [RH = 70%]
Pressure (altimeter): 29.70 inches Hg (1006.0 mb)
Winds: from the SSW (210 degrees) at 15 MPH (13 knots; 6.7 m/s)
gusting to 26 MPH (23 knots; 11.8 m/s)
Visibility: 6 or more miles (10+ km)
Ceiling: at least 12,000 feet AGL
Clouds: few clouds at 2000 feet AGL
scattered clouds at 4000 feet AGL
Weather: no significant weather observed at this time

METAR text: EIDW 180700Z 21013KT 170V230 9999 FEW020 SCT040 06/02 Q1006 NOSIG
Conditions at: EIDW (DUBLIN AIRPORT , IE) observed 0700 UTC 18 February 2019
Temperature: 6.0°C (43°F)
Dewpoint: 2.0°C (36°F) [RH = 75%]
Pressure (altimeter): 29.70 inches Hg (1006.0 mb)
Winds: from the SSW (210 degrees) at 15 MPH (13 knots; 6.7 m/s)
Visibility: 6 or more miles (10+ km)
Ceiling: at least 12,000 feet AGL
Clouds: few clouds at 2000 feet AGL
scattered clouds at 4000 feet AGL
Weather: no significant weather observed at this time

METAR text: EIDW 180630Z 21012KT 9999 FEW020 SCT040 06/02 Q1006 NOSIG
Conditions at: EIDW (DUBLIN AIRPORT , IE) observed 0630 UTC 18 February 2019
Temperature: 6.0°C (43°F)
Dewpoint: 2.0°C (36°F) [RH = 75%]
Pressure (altimeter): 29.70 inches Hg (1006.0 mb)
Winds: from the SSW (210 degrees) at 14 MPH (12 knots; 6.2 m/s)
Visibility: 6 or more miles (10+ km)
Ceiling: at least 12,000 feet AGL
Clouds: few clouds at 2000 feet AGL
scattered clouds at 4000 feet AGL
Weather: no significant weather observed at this time

METAR text: EIDW 180600Z 22012KT 190V270 9999 FEW020 SCT040 06/02 Q1006 NOSIG
Conditions at: EIDW (DUBLIN AIRPORT , IE) observed 0600 UTC 18 February 2019
Temperature: 6.0°C (43°F)
Dewpoint: 2.0°C (36°F) [RH = 75%]
Pressure (altimeter): 29.70 inches Hg (1006.0 mb)
Winds: from the SW (220 degrees) at 14 MPH (12 knots; 6.2 m/s)
Visibility: 6 or more miles (10+ km)
Ceiling: at least 12,000 feet AGL
Clouds: few clouds at 2000 feet AGL
scattered clouds at 4000 feet AGL
Weather: no significant weather observed at this time

METAR text: EIDW 180530Z 22013KT 9999 FEW020 SCT040 06/02 Q1005 NOSIG
Conditions at: EIDW (DUBLIN AIRPORT , IE) observed 0530 UTC 18 February 2019
Temperature: 6.0°C (43°F)
Dewpoint: 2.0°C (36°F) [RH = 75%]
Pressure (altimeter): 29.68 inches Hg (1005.0 mb)
Winds: from the SW (220 degrees) at 15 MPH (13 knots; 6.7 m/s)
Visibility: 6 or more miles (10+ km)
Ceiling: at least 12,000 feet AGL
Clouds: few clouds at 2000 feet AGL
scattered clouds at 4000 feet AGL
Weather: no significant weather observed at this time

METAR text: EIDW 180500Z 22012KT 190V250 9999 FEW020 SCT040 06/03 Q1005 NOSIG
Conditions at: EIDW (DUBLIN AIRPORT , IE) observed 0500 UTC 18 February 2019
Temperature: 6.0°C (43°F)
Dewpoint: 3.0°C (37°F) [RH = 81%]
Pressure (altimeter): 29.68 inches Hg (1005.0 mb)
Winds: from the SW (220 degrees) at 14 MPH (12 knots; 6.2 m/s)
Visibility: 6 or more miles (10+ km)
Ceiling: at least 12,000 feet AGL
Clouds: few clouds at 2000 feet AGL
scattered clouds at 4000 feet AGL
Weather: no significant weather observed at this time

METAR text: EIDW 180430Z 22010KT 190V250 9999 FEW020 SCT040 06/03 Q1005 NOSIG
Conditions at: EIDW (DUBLIN AIRPORT , IE) observed 0430 UTC 18 February 2019
Temperature: 6.0°C (43°F)
Dewpoint: 3.0°C (37°F) [RH = 81%]
Pressure (altimeter): 29.68 inches Hg (1005.0 mb)
Winds: from the SW (220 degrees) at 12 MPH (10 knots; 5.1 m/s)
Visibility: 6 or more miles (10+ km)
Ceiling: at least 12,000 feet AGL
Clouds: few clouds at 2000 feet AGL
scattered clouds at 4000 feet AGL
Weather: no significant weather observed at this time

METAR text: EIDW 180400Z 22008KT 170V250 9999 FEW020 SCT040 06/03 Q1005 NOSIG
Conditions at: EIDW (DUBLIN AIRPORT , IE) observed 0400 UTC 18 February 2019
Temperature: 6.0°C (43°F)
Dewpoint: 3.0°C (37°F) [RH = 81%]
Pressure (altimeter): 29.68 inches Hg (1005.0 mb)
Winds: from the SW (220 degrees) at 9 MPH (8 knots; 4.1 m/s)
Visibility: 6 or more miles (10+ km)
Ceiling: at least 12,000 feet AGL
Clouds: few clouds at 2000 feet AGL
scattered clouds at 4000 feet AGL
Weather: no significant weather observed at this time

METAR text: EIDW 180330Z 22008KT 180V250 9999 FEW020 BKN040 07/03 Q1005 NOSIG
Conditions at: EIDW (DUBLIN AIRPORT , IE) observed 0330 UTC 18 February 2019
Temperature: 7.0°C (45°F)
Dewpoint: 3.0°C (37°F) [RH = 76%]
Pressure (altimeter): 29.68 inches Hg (1005.0 mb)
Winds: from the SW (220 degrees) at 9 MPH (8 knots; 4.1 m/s)
Visibility: 6 or more miles (10+ km)
Ceiling: 4000 feet AGL
Clouds: few clouds at 2000 feet AGL
broken clouds at 4000 feet AGL
Weather: no significant weather observed at this time

METAR text: EIDW 180300Z 21009KT 180V260 9999 FEW020 BKN040 07/04 Q1005 NOSIG
Conditions at: EIDW (DUBLIN AIRPORT , IE) observed 0300 UTC 18 February 2019
Temperature: 7.0°C (45°F)
Dewpoint: 4.0°C (39°F) [RH = 81%]
Pressure (altimeter): 29.68 inches Hg (1005.0 mb)
Winds: from the SSW (210 degrees) at 10 MPH (9 knots; 4.6 m/s)
Visibility: 6 or more miles (10+ km)
Ceiling: 4000 feet AGL
Clouds: few clouds at 2000 feet AGL
broken clouds at 4000 feet AGL
Weather: no significant weather observed at this time

METAR text: EIDW 180230Z 21012KT 170V260 9999 BKN020 08/04 Q1005 NOSIG
Conditions at: EIDW (DUBLIN AIRPORT , IE) observed 0230 UTC 18 February 2019
Temperature: 8.0°C (46°F)
Dewpoint: 4.0°C (39°F) [RH = 76%]
Pressure (altimeter): 29.68 inches Hg (1005.0 mb)
Winds: from the SSW (210 degrees) at 14 MPH (12 knots; 6.2 m/s)
Visibility: 6 or more miles (10+ km)
Ceiling: 2000 feet AGL
Clouds: broken clouds at 2000 feet AGL
Weather: no significant weather observed at this time

METAR text: EIDW 180200Z 20011KT 160V220 9999 FEW024 SCT030 08/04 Q1005 NOSIG
Conditions at: EIDW (DUBLIN AIRPORT , IE) observed 0200 UTC 18 February 2019
Temperature: 8.0°C (46°F)
Dewpoint: 4.0°C (39°F) [RH = 76%]
Pressure (altimeter): 29.68 inches Hg (1005.0 mb)
Winds: from the SSW (200 degrees) at 13 MPH (11 knots; 5.7 m/s)
Visibility: 6 or more miles (10+ km)
Ceiling: at least 12,000 feet AGL
Clouds: few clouds at 2400 feet AGL
scattered clouds at 3000 feet AGL
Weather: no significant weather observed at this time

METAR text: EIDW 180130Z 20014KT 170V230 9999 FEW024 SCT040 08/04 Q1005 NOSIG
Conditions at: EIDW (DUBLIN AIRPORT , IE) observed 0130 UTC 18 February 2019
Temperature: 8.0°C (46°F)
Dewpoint: 4.0°C (39°F) [RH = 76%]
Pressure (altimeter): 29.68 inches Hg (1005.0 mb)
Winds: from the SSW (200 degrees) at 16 MPH (14 knots; 7.2 m/s)
Visibility: 6 or more miles (10+ km)
Ceiling: at least 12,000 feet AGL
Clouds: few clouds at 2400 feet AGL
scattered clouds at 4000 feet AGL
Weather: no significant weather observed at this time

METAR text: EIDW 180100Z 20014G24KT 9999 FEW024 08/04 Q1005 NOSIG
Conditions at: EIDW (DUBLIN AIRPORT , IE) observed 0100 UTC 18 February 2019
Temperature: 8.0°C (46°F)
Dewpoint: 4.0°C (39°F) [RH = 76%]
Pressure (altimeter): 29.68 inches Hg (1005.0 mb)
Winds: from the SSW (200 degrees) at 16 MPH (14 knots; 7.2 m/s)
gusting to 28 MPH (24 knots; 12.3 m/s)
Visibility: 6 or more miles (10+ km)
Ceiling: at least 12,000 feet AGL
Clouds: few clouds at 2400 feet AGL
Weather: no significant weather observed at this time

METAR text: EIDW 180030Z 21016KT 170V250 9999 FEW024 08/04 Q1004 NOSIG
Conditions at: EIDW (DUBLIN AIRPORT , IE) observed 0030 UTC 18 February 2019
Temperature: 8.0°C (46°F)
Dewpoint: 4.0°C (39°F) [RH = 76%]
Pressure (altimeter): 29.65 inches Hg (1004.0 mb)
Winds: from the SSW (210 degrees) at 18 MPH (16 knots; 8.2 m/s)
Visibility: 6 or more miles (10+ km)
Ceiling: at least 12,000 feet AGL
Clouds: few clouds at 2400 feet AGL
Weather: no significant weather observed at this time

METAR text: EIDW 180000Z 21015G27KT 190V250 9999 FEW024 08/03 Q1004 NOSIG
Conditions at: EIDW (DUBLIN AIRPORT , IE) observed 0000 UTC 18 February 2019
Temperature: 8.0°C (46°F)
Dewpoint: 3.0°C (37°F) [RH = 71%]
Pressure (altimeter): 29.65 inches Hg (1004.0 mb)
Winds: from the SSW (210 degrees) at 17 MPH (15 knots; 7.7 m/s)
gusting to 31 MPH (27 knots; 13.9 m/s)
Visibility: 6 or more miles (10+ km)
Ceiling: at least 12,000 feet AGL
Clouds: few clouds at 2400 feet AGL
Weather: no significant weather observed at this time

METAR text: EIDW 172330Z 22015G25KT 180V250 9999 FEW024 08/04 Q1004 NOSIG
Conditions at: EIDW (DUBLIN AIRPORT , IE) observed 2330 UTC 17 February 2019
Temperature: 8.0°C (46°F)
Dewpoint: 4.0°C (39°F) [RH = 76%]
Pressure (altimeter): 29.65 inches Hg (1004.0 mb)
Winds: from the SW (220 degrees) at 17 MPH (15 knots; 7.7 m/s)
gusting to 29 MPH (25 knots; 12.9 m/s)
Visibility: 6 or more miles (10+ km)
Ceiling: at least 12,000 feet AGL
Clouds: few clouds at 2400 feet AGL
Weather: no significant weather observed at this time

METAR text: EIDW 172300Z 21016G27KT 190V250 9999 FEW024 09/04 Q1004 NOSIG
Conditions at: EIDW (DUBLIN AIRPORT , IE) observed 2300 UTC 17 February 2019
Temperature: 9.0°C (48°F)
Dewpoint: 4.0°C (39°F) [RH = 71%]
Pressure (altimeter): 29.65 inches Hg (1004.0 mb)
Winds: from the SSW (210 degrees) at 18 MPH (16 knots; 8.2 m/s)
gusting to 31 MPH (27 knots; 13.9 m/s)
Visibility: 6 or more miles (10+ km)
Ceiling: at least 12,000 feet AGL
Clouds: few clouds at 2400 feet AGL
Weather: no significant weather observed at this time

METAR text: EIDW 172230Z 21016G27KT 190V250 9999 FEW024 08/04 Q1004 NOSIG
Conditions at: EIDW (DUBLIN AIRPORT , IE) observed 2230 UTC 17 February 2019
Temperature: 8.0°C (46°F)
Dewpoint: 4.0°C (39°F) [RH = 76%]
Pressure (altimeter): 29.65 inches Hg (1004.0 mb)
Winds: from the SSW (210 degrees) at 18 MPH (16 knots; 8.2 m/s)
gusting to 31 MPH (27 knots; 13.9 m/s)
Visibility: 6 or more miles (10+ km)
Ceiling: at least 12,000 feet AGL
Clouds: few clouds at 2400 feet AGL
Weather: no significant weather observed at this time

METAR text: EIDW 172200Z 20018KT 170V230 9999 FEW024 09/04 Q1004 NOSIG
Conditions at: EIDW (DUBLIN AIRPORT , IE) observed 2200 UTC 17 February 2019
Temperature: 9.0°C (48°F)
Dewpoint: 4.0°C (39°F) [RH = 71%]
Pressure (altimeter): 29.65 inches Hg (1004.0 mb)
Winds: from the SSW (200 degrees) at 21 MPH (18 knots; 9.3 m/s)
Visibility: 6 or more miles (10+ km)
Ceiling: at least 12,000 feet AGL
Clouds: few clouds at 2400 feet AGL
Weather: no significant weather observed at this time

METAR text: EIDW 172130Z 21016G26KT 160V240 9999 FEW024 08/04 Q1004 NOSIG
Conditions at: EIDW (DUBLIN AIRPORT , IE) observed 2130 UTC 17 February 2019
Temperature: 8.0°C (46°F)
Dewpoint: 4.0°C (39°F) [RH = 76%]
Pressure (altimeter): 29.65 inches Hg (1004.0 mb)
Winds: from the SSW (210 degrees) at 18 MPH (16 knots; 8.2 m/s)
gusting to 30 MPH (26 knots; 13.4 m/s)
Visibility: 6 or more miles (10+ km)
Ceiling: at least 12,000 feet AGL
Clouds: few clouds at 2400 feet AGL
Weather: no significant weather observed at this time

METAR text: EIDW 172100Z 20017G27KT 170V230 9999 FEW024 08/04 Q1004 NOSIG
Conditions at: EIDW (DUBLIN AIRPORT , IE) observed 2100 UTC 17 February 2019
Temperature: 8.0°C (46°F)
Dewpoint: 4.0°C (39°F) [RH = 76%]
Pressure (altimeter): 29.65 inches Hg (1004.0 mb)
Winds: from the SSW (200 degrees) at 20 MPH (17 knots; 8.7 m/s)
gusting to 31 MPH (27 knots; 13.9 m/s)
Visibility: 6 or more miles (10+ km)
Ceiling: at least 12,000 feet AGL
Clouds: few clouds at 2400 feet AGL
Weather: no significant weather observed at this time

METAR text: EIDW 172030Z 21017G28KT 180V250 9999 FEW024 09/04 Q1004 NOSIG
Conditions at: EIDW (DUBLIN AIRPORT , IE) observed 2030 UTC 17 February 2019
Temperature: 9.0°C (48°F)
Dewpoint: 4.0°C (39°F) [RH = 71%]
Pressure (altimeter): 29.65 inches Hg (1004.0 mb)
Winds: from the SSW (210 degrees) at 20 MPH (17 knots; 8.7 m/s)
gusting to 32 MPH (28 knots; 14.4 m/s)
Visibility: 6 or more miles (10+ km)
Ceiling: at least 12,000 feet AGL
Clouds: few clouds at 2400 feet AGL
Weather: no significant weather observed at this time

METAR text: EIDW 172000Z 20013G23KT 180V240 9999 FEW024 09/04 Q1004 NOSIG
Conditions at: EIDW (DUBLIN AIRPORT , IE) observed 2000 UTC 17 February 2019
Temperature: 9.0°C (48°F)
Dewpoint: 4.0°C (39°F) [RH = 71%]
Pressure (altimeter): 29.65 inches Hg (1004.0 mb)
Winds: from the SSW (200 degrees) at 15 MPH (13 knots; 6.7 m/s)
gusting to 26 MPH (23 knots; 11.8 m/s)
Visibility: 6 or more miles (10+ km)
Ceiling: at least 12,000 feet AGL
Clouds: few clouds at 2400 feet AGL
Weather: no significant weather observed at this time

METAR text: EIDW 171930Z 20015KT 170V250 9999 FEW024 09/04 Q1004 NOSIG
Conditions at: EIDW (DUBLIN AIRPORT , IE) observed 1930 UTC 17 February 2019
Temperature: 9.0°C (48°F)
Dewpoint: 4.0°C (39°F) [RH = 71%]
Pressure (altimeter): 29.65 inches Hg (1004.0 mb)
Winds: from the SSW (200 degrees) at 17 MPH (15 knots; 7.7 m/s)
Visibility: 6 or more miles (10+ km)
Ceiling: at least 12,000 feet AGL
Clouds: few clouds at 2400 feet AGL
Weather: no significant weather observed at this time

METAR text: EIDW 171900Z 20012KT 9999 FEW024 09/04 Q1003 NOSIG
Conditions at: EIDW (DUBLIN AIRPORT , IE) observed 1900 UTC 17 February 2019
Temperature: 9.0°C (48°F)
Dewpoint: 4.0°C (39°F) [RH = 71%]
Pressure (altimeter): 29.62 inches Hg (1003.0 mb)
Winds: from the SSW (200 degrees) at 14 MPH (12 knots; 6.2 m/s)
Visibility: 6 or more miles (10+ km)
Ceiling: at least 12,000 feet AGL
Clouds: few clouds at 2400 feet AGL
Weather: no significant weather observed at this time

METAR text: EIDW 171830Z 20013KT 170V230 9999 FEW024 09/04 Q1003 NOSIG
Conditions at: EIDW (DUBLIN AIRPORT , IE) observed 1830 UTC 17 February 2019
Temperature: 9.0°C (48°F)
Dewpoint: 4.0°C (39°F) [RH = 71%]
Pressure (altimeter): 29.62 inches Hg (1003.0 mb)
Winds: from the SSW (200 degrees) at 15 MPH (13 knots; 6.7 m/s)
Visibility: 6 or more miles (10+ km)
Ceiling: at least 12,000 feet AGL
Clouds: few clouds at 2400 feet AGL
Weather: no significant weather observed at this time

METAR text: EIDW 171800Z 20017KT 170V230 9999 FEW024CB SCT040 10/04 Q1003 NOSIG
Conditions at: EIDW (DUBLIN AIRPORT , IE) observed 1800 UTC 17 February 2019
Temperature: 10.0°C (50°F)
Dewpoint: 4.0°C (39°F) [RH = 66%]
Pressure (altimeter): 29.62 inches Hg (1003.0 mb)
Winds: from the SSW (200 degrees) at 20 MPH (17 knots; 8.7 m/s)
Visibility: 6 or more miles (10+ km)
Ceiling: at least 12,000 feet AGL
Clouds: few clouds at 2400 feet AGL
scattered clouds at 4000 feet AGL
Weather: no significant weather observed at this time

METAR text: EIDW 171730Z 19015KT 170V230 9999 FEW024CB BKN030 10/05 Q1003 NOSIG
Conditions at: EIDW (DUBLIN AIRPORT , IE) observed 1730 UTC 17 February 2019
Temperature: 10.0°C (50°F)
Dewpoint: 5.0°C (41°F) [RH = 71%]
Pressure (altimeter): 29.62 inches Hg (1003.0 mb)
Winds: from the S (190 degrees) at 17 MPH (15 knots; 7.7 m/s)
Visibility: 6 or more miles (10+ km)
Ceiling: 3000 feet AGL
Clouds: few clouds at 2400 feet AGL
broken clouds at 3000 feet AGL
Weather: no significant weather observed at this time

METAR text: EIDW 171700Z 18014KT 150V210 9999 FEW024CB SCT032 10/04 Q1003 WS RWY28 NOSIG
Conditions at: EIDW (DUBLIN AIRPORT , IE) observed 1700 UTC 17 February 2019
Temperature: 10.0°C (50°F)
Dewpoint: 4.0°C (39°F) [RH = 66%]
Pressure (altimeter): 29.62 inches Hg (1003.0 mb)
Winds: from the S (180 degrees) at 16 MPH (14 knots; 7.2 m/s)
Visibility: 6 or more miles (10+ km)
Ceiling: at least 12,000 feet AGL
Clouds: few clouds at 2400 feet AGL
scattered clouds at 3200 feet AGL
Weather: no significant weather observed at this time

METAR text: EIDW 171630Z 19018KT 160V230 9999 FEW024CB SCT040 10/04 Q1003 WS RWY28 NOSIG
Conditions at: EIDW (DUBLIN AIRPORT , IE) observed 1630 UTC 17 February 2019
Temperature: 10.0°C (50°F)
Dewpoint: 4.0°C (39°F) [RH = 66%]
Pressure (altimeter): 29.62 inches Hg (1003.0 mb)
Winds: from the S (190 degrees) at 21 MPH (18 knots; 9.3 m/s)
Visibility: 6 or more miles (10+ km)
Ceiling: at least 12,000 feet AGL
Clouds: few clouds at 2400 feet AGL
scattered clouds at 4000 feet AGL
Weather: no significant weather observed at this time

Forecast for: EIDW (DUBLIN AIRPORT , IE)
Text: TAF EIDW 182300Z 1900/1924 24009KT 9999 FEW015 BKN030
Forecast period: 0000 to 0500 UTC 19 February 2019
Forecast type: FROM: standard forecast or significant change
Winds: from the WSW (240 degrees) at 10 MPH (9 knots; 4.6 m/s)
Visibility: 6 or more miles 10+ km)
Ceiling: 3000 feet AGL
Clouds: few clouds at 1500 feet AGL
broken clouds at 3000 feet AGL
Weather: no significant weather forecast for this period
Text: BECMG 1905/1907 20012KT
Forecast period: 0500 to 2000 UTC 19 February 2019
Forecast type: BECOMING: Conditions expected to become as follows by 0700 UTC 19 February 2019
Winds: from the SSW (200 degrees) at 14 MPH (12 knots; 6.2 m/s)
Visibility: 6 or more miles 10+ km)
Ceiling: 3000 feet AGL
Clouds: few clouds at 1500 feet AGL
broken clouds at 3000 feet AGL
Weather: no significant weather forecast for this period
Text: PROB30
Forecast period: 1200 to 2000 UTC 19 February 2019
Forecast type: TEMPORARY: The following changes expected for less than half the time period
Visibility: missing
Ceiling: 1400 feet AGL
Clouds: broken clouds at 1400 feet AGL
Weather: -RA  (light rain)
Text: TEMPO 1912/1920 -RA BKN014
Forecast period: 1700 to 2000 UTC 19 February 2019
Forecast type: TEMPORARY: The following changes expected for less than half the time period
Winds: from the SSW (210 degrees) at 21 MPH (18 knots; 9.3 m/s)
gusting to 32 MPH (28 knots; 14.4 m/s)
Visibility: missing
Ceiling: unknown
Clouds: missing
Weather: no significant weather forecast for this period
Text: TEMPO 1917/1920 21018G28KT
Forecast period: 2000 UTC 19 February 2019 to 0000 UTC 20 February 2019
Forecast type: BECOMING: Conditions expected to become as follows by 2200 UTC 19 February 2019
Winds: from the SSW (210 degrees) at 20 MPH (17 knots; 8.7 m/s)
Visibility: 6 or more miles 10+ km)
Ceiling: 3000 feet AGL
Clouds: few clouds at 1500 feet AGL
broken clouds at 3000 feet AGL
Weather: no significant weather forecast for this period
Text: BECMG 1920/1922 21017KT
Forecast period: 2000 UTC 19 February 2019 to 0000 UTC 20 February 2019
Forecast type: TEMPORARY: The following changes expected for less than half the time period
Winds: from the SW (220 degrees) at 23 MPH (20 knots; 10.3 m/s)
gusting to 34 MPH (30 knots; 15.4 m/s)
Visibility: missing
Ceiling: 1000 feet AGL
Clouds: broken clouds at 1000 feet AGL
Weather: -RA  (light rain)